createdAt,value
2017-06-27T00:00:08.482Z,1004.96
2017-06-27T00:01:08.466Z,1004.99
2017-06-27T00:02:08.455Z,1005
2017-06-27T00:03:08.443Z,1005
2017-06-27T00:04:08.430Z,1005
2017-06-27T00:05:08.418Z,1004.98
2017-06-27T00:06:08.407Z,1004.97
2017-06-27T00:07:08.394Z,1004.99
2017-06-27T00:08:08.383Z,1005
2017-06-27T00:09:08.372Z,1004.99
2017-06-27T00:10:08.359Z,1004.99
2017-06-27T00:11:08.351Z,1004.97
2017-06-27T00:12:08.336Z,1004.99
2017-06-27T00:13:08.324Z,1005.01
2017-06-27T00:14:08.313Z,1004.99
2017-06-27T00:15:08.302Z,1004.97
2017-06-27T00:16:08.288Z,1004.95
2017-06-27T00:17:08.277Z,1004.95
2017-06-27T00:18:08.265Z,1004.96
2017-06-27T00:19:08.256Z,1004.96
2017-06-27T00:20:08.243Z,1004.94
2017-06-27T00:21:08.230Z,1004.87
2017-06-27T00:22:08.218Z,1004.92
2017-06-27T00:23:08.206Z,1004.91
2017-06-27T00:24:08.196Z,1004.89
2017-06-27T00:25:08.185Z,1004.88
2017-06-27T00:26:08.170Z,1004.84
2017-06-27T00:27:08.159Z,1004.81
2017-06-27T00:28:08.146Z,1004.82
2017-06-27T00:29:08.136Z,1004.8
2017-06-27T00:30:08.123Z,1004.82
2017-06-27T00:31:08.113Z,1004.79
2017-06-27T00:32:08.098Z,1004.79
2017-06-27T00:33:08.087Z,1004.76
2017-06-27T00:34:08.073Z,1004.76
2017-06-27T00:35:08.062Z,1004.77
2017-06-27T00:36:08.051Z,1004.7
2017-06-27T00:37:08.037Z,1004.68
2017-06-27T00:38:08.028Z,1004.68
2017-06-27T00:39:08.016Z,1004.65
2017-06-27T00:40:08.002Z,1004.64
2017-06-27T00:41:07.989Z,1004.65
2017-06-27T00:42:07.982Z,1004.65
2017-06-27T00:43:07.967Z,1004.62
2017-06-27T00:44:08.003Z,1004.62
2017-06-27T00:45:07.942Z,1004.6
2017-06-27T00:46:07.930Z,1004.59
2017-06-27T00:47:07.918Z,1004.55
2017-06-27T00:48:07.903Z,1004.53
2017-06-27T00:49:07.893Z,1004.56
2017-06-27T00:50:07.881Z,1004.55
2017-06-27T00:51:07.869Z,1004.55
2017-06-27T00:52:07.856Z,1004.53
2017-06-27T00:53:07.847Z,1004.57
2017-06-27T00:54:07.832Z,1004.53
2017-06-27T00:55:07.819Z,1004.55
2017-06-27T00:56:07.808Z,1004.58
2017-06-27T00:57:07.798Z,1004.6
2017-06-27T00:58:07.784Z,1004.63
2017-06-27T00:59:07.770Z,1004.62
2017-06-27T01:00:07.760Z,1004.59
2017-06-27T01:01:07.749Z,1004.63
2017-06-27T01:02:07.738Z,1004.64
2017-06-27T01:03:07.722Z,1004.6
2017-06-27T01:04:07.711Z,1004.62
2017-06-27T01:05:07.701Z,1004.59
2017-06-27T01:06:07.687Z,1004.61
2017-06-27T01:07:07.675Z,1004.58
2017-06-27T01:08:07.667Z,1004.6
2017-06-27T01:09:07.651Z,1004.58
2017-06-27T01:10:07.639Z,1004.61
2017-06-27T01:11:07.626Z,1004.59
2017-06-27T01:12:07.614Z,1004.59
2017-06-27T01:13:07.601Z,1004.61
2017-06-27T01:14:07.590Z,1004.65
2017-06-27T01:15:07.576Z,1004.64
2017-06-27T01:16:07.565Z,1004.69
2017-06-27T01:17:07.551Z,1004.65
2017-06-27T01:18:07.542Z,1004.68
2017-06-27T01:19:07.528Z,1004.67
2017-06-27T01:20:07.518Z,1004.65
2017-06-27T01:21:07.507Z,1004.66
2017-06-27T01:22:07.493Z,1004.71
2017-06-27T01:23:07.481Z,1004.66
2017-06-27T01:24:07.469Z,1004.69
2017-06-27T01:25:07.454Z,1004.67
2017-06-27T01:26:07.442Z,1004.7
2017-06-27T01:27:07.432Z,1004.68
2017-06-27T01:28:07.419Z,1004.65
2017-06-27T01:29:07.408Z,1004.64
2017-06-27T01:30:07.405Z,1004.63
2017-06-27T01:31:07.382Z,1004.65
2017-06-27T01:32:07.370Z,1004.66
2017-06-27T01:33:07.358Z,1004.65
2017-06-27T01:34:07.346Z,1004.62
2017-06-27T01:35:07.335Z,1004.63
2017-06-27T01:36:07.321Z,1004.61
2017-06-27T01:37:07.309Z,1004.64
2017-06-27T01:38:07.298Z,1004.63
2017-06-27T01:39:07.284Z,1004.65
2017-06-27T01:40:07.274Z,1004.61
2017-06-27T01:41:07.464Z,1004.58
2017-06-27T01:42:07.249Z,1004.58
2017-06-27T01:43:07.236Z,1004.61
2017-06-27T01:44:07.223Z,1004.6
2017-06-27T01:45:07.211Z,1004.6
2017-06-27T01:46:07.200Z,1004.62
2017-06-27T01:47:07.190Z,1004.55
2017-06-27T01:48:07.177Z,1004.54
2017-06-27T01:49:07.164Z,1004.55
2017-06-27T01:50:07.152Z,1004.48
2017-06-27T01:51:07.139Z,1004.52
2017-06-27T01:52:07.128Z,1004.49
2017-06-27T01:53:07.114Z,1004.49
2017-06-27T01:54:07.101Z,1004.5
2017-06-27T01:55:07.089Z,1004.5
2017-06-27T01:56:07.079Z,1004.47
2017-06-27T01:57:07.066Z,1004.44
2017-06-27T01:58:07.053Z,1004.46
2017-06-27T01:59:07.042Z,1004.44
2017-06-27T02:00:07.029Z,1004.44
2017-06-27T02:01:07.016Z,1004.41
2017-06-27T02:02:07.003Z,1004.42
2017-06-27T02:03:06.991Z,1004.41
2017-06-27T02:04:06.981Z,1004.34
2017-06-27T02:05:06.970Z,1004.33
2017-06-27T02:06:06.956Z,1004.33
2017-06-27T02:07:06.944Z,1004.33
2017-06-27T02:08:06.930Z,1004.31
2017-06-27T02:09:06.917Z,1004.34
2017-06-27T02:10:06.907Z,1004.3
2017-06-27T02:11:06.893Z,1004.29
2017-06-27T02:12:06.882Z,1004.29
2017-06-27T02:13:06.869Z,1004.32
2017-06-27T02:14:06.857Z,1004.3
2017-06-27T02:15:06.844Z,1004.33
2017-06-27T02:16:06.832Z,1004.33
2017-06-27T02:17:06.819Z,1004.27
2017-06-27T02:18:06.806Z,1004.3
2017-06-27T02:19:06.794Z,1004.3
2017-06-27T02:20:06.781Z,1004.32
2017-06-27T02:21:06.770Z,1004.31
2017-06-27T02:22:06.757Z,1004.28
2017-06-27T02:23:06.746Z,1004.26
2017-06-27T02:24:06.732Z,1004.26
2017-06-27T02:25:06.721Z,1004.26
2017-06-27T02:26:06.708Z,1004.22
2017-06-27T02:27:06.700Z,1004.21
2017-06-27T02:28:06.682Z,1004.25
2017-06-27T02:29:06.671Z,1004.2
2017-06-27T02:30:06.657Z,1004.25
2017-06-27T02:31:06.645Z,1004.22
2017-06-27T02:32:06.633Z,1004.21
2017-06-27T02:33:06.621Z,1004.23
2017-06-27T02:34:06.609Z,1004.21
2017-06-27T02:35:06.799Z,1004.19
2017-06-27T02:36:06.583Z,1004.18
2017-06-27T02:37:06.571Z,1004.15
2017-06-27T02:38:06.561Z,1004.19
2017-06-27T02:39:06.546Z,1004.21
2017-06-27T02:40:06.544Z,1004.18
2017-06-27T02:41:06.520Z,1004.18
2017-06-27T02:42:06.510Z,1004.2
2017-06-27T02:43:06.496Z,1004.16
2017-06-27T02:44:06.485Z,1004.2
2017-06-27T02:45:06.471Z,1004.2
2017-06-27T02:46:06.457Z,1004.2
2017-06-27T02:47:06.446Z,1004.23
2017-06-27T02:48:06.432Z,1004.19
2017-06-27T02:49:06.420Z,1004.14
2017-06-27T02:50:06.414Z,1004.15
2017-06-27T02:51:06.393Z,1004.19
2017-06-27T02:52:06.380Z,1004.14
2017-06-27T02:53:06.369Z,1004.14
2017-06-27T02:54:06.356Z,1004.14
2017-06-27T02:55:06.344Z,1004.15
2017-06-27T02:56:06.330Z,1004.13
2017-06-27T02:57:06.318Z,1004.17
2017-06-27T02:58:06.311Z,1004.12
2017-06-27T02:59:06.293Z,1004.15
2017-06-27T03:00:06.281Z,1004.17
2017-06-27T03:01:06.268Z,1004.11
2017-06-27T03:02:06.254Z,1004.1
2017-06-27T03:03:06.243Z,1004.08
2017-06-27T03:04:06.231Z,1004.11
2017-06-27T03:05:06.217Z,1004.08
2017-06-27T03:06:06.204Z,1004.09
2017-06-27T03:07:06.192Z,1004.12
2017-06-27T03:08:06.179Z,1004.14
2017-06-27T03:09:06.165Z,1004.14
2017-06-27T03:10:06.154Z,1004.15
2017-06-27T03:11:06.141Z,1004.16
2017-06-27T03:12:06.128Z,1004.12
2017-06-27T03:13:06.115Z,1004.16
2017-06-27T03:14:06.102Z,1004.15
2017-06-27T03:15:06.088Z,1004.2
2017-06-27T03:16:06.077Z,1004.16
2017-06-27T03:17:06.063Z,1004.2
2017-06-27T03:18:06.049Z,1004.23
2017-06-27T03:19:06.041Z,1004.26
2017-06-27T03:20:06.027Z,1004.27
2017-06-27T03:21:06.015Z,1004.26
2017-06-27T03:22:05.999Z,1004.28
2017-06-27T03:23:05.988Z,1004.28
2017-06-27T03:24:05.975Z,1004.32
2017-06-27T03:25:05.964Z,1004.28
2017-06-27T03:26:05.949Z,1004.3
2017-06-27T03:27:05.935Z,1004.27
2017-06-27T03:28:05.926Z,1004.2
2017-06-27T03:29:05.910Z,1004.2
2017-06-27T03:30:05.897Z,1004.15
2017-06-27T03:31:05.884Z,1004.12
2017-06-27T03:32:05.872Z,1004.13
2017-06-27T03:33:05.861Z,1004.12
2017-06-27T03:34:05.846Z,1004.08
2017-06-27T03:35:05.836Z,1004.09
2017-06-27T03:36:05.820Z,1004.07
2017-06-27T03:37:05.809Z,1004.05
2017-06-27T03:38:05.796Z,1004.03
2017-06-27T03:39:05.788Z,1004.01
2017-06-27T03:40:05.769Z,1004.05
2017-06-27T03:41:06.161Z,1004.04
2017-06-27T03:42:05.745Z,1004.03
2017-06-27T03:43:05.731Z,1004.02
2017-06-27T03:44:05.719Z,1003.99
2017-06-27T03:45:05.709Z,1004.03
2017-06-27T03:46:05.693Z,1004.02
2017-06-27T03:47:05.684Z,1003.99
2017-06-27T03:48:05.668Z,1003.98
2017-06-27T03:49:05.655Z,1003.96
2017-06-27T03:50:05.644Z,1003.98
2017-06-27T03:51:05.631Z,1003.93
2017-06-27T03:52:05.667Z,1003.91
2017-06-27T03:53:05.604Z,1003.94
2017-06-27T03:54:05.594Z,1003.91
2017-06-27T03:55:05.578Z,1003.95
2017-06-27T03:56:05.567Z,1003.88
2017-06-27T03:57:05.555Z,1003.96
2017-06-27T03:58:05.542Z,1003.95
2017-06-27T03:59:05.528Z,1003.94
2017-06-27T04:00:05.517Z,1003.92
2017-06-27T04:01:05.503Z,1003.97
2017-06-27T04:02:05.489Z,1003.95
2017-06-27T04:03:05.478Z,1003.98
2017-06-27T04:04:05.466Z,1004
2017-06-27T04:05:05.453Z,1004.01
2017-06-27T04:06:05.442Z,1004
2017-06-27T04:07:05.429Z,1003.99
2017-06-27T04:08:05.416Z,1003.97
2017-06-27T04:09:05.401Z,1003.98
2017-06-27T04:10:05.390Z,1003.97
2017-06-27T04:11:05.379Z,1003.95
2017-06-27T04:12:05.364Z,1003.94
2017-06-27T04:13:05.352Z,1003.95
2017-06-27T04:14:05.343Z,1003.92
2017-06-27T04:15:05.330Z,1003.94
2017-06-27T04:16:05.314Z,1003.99
2017-06-27T04:17:05.302Z,1003.91
2017-06-27T04:18:05.291Z,1003.94
2017-06-27T04:19:05.279Z,1003.98
2017-06-27T04:20:05.263Z,1003.97
2017-06-27T04:21:05.255Z,1003.95
2017-06-27T04:22:05.240Z,1004
2017-06-27T04:23:05.231Z,1003.98
2017-06-27T04:24:05.216Z,1003.94
2017-06-27T04:25:05.203Z,1003.95
2017-06-27T04:26:05.191Z,1003.86
2017-06-27T04:27:05.229Z,1003.87
2017-06-27T04:28:05.166Z,1003.84
2017-06-27T04:29:05.158Z,1003.84
2017-06-27T04:30:05.141Z,1003.78
2017-06-27T04:31:05.129Z,1003.78
2017-06-27T04:32:05.123Z,1003.74
2017-06-27T04:33:05.104Z,1003.7
2017-06-27T04:34:05.092Z,1003.7
2017-06-27T04:35:05.079Z,1003.7
2017-06-27T04:36:05.068Z,1003.71
2017-06-27T04:37:05.055Z,1003.7
2017-06-27T04:38:05.044Z,1003.63
2017-06-27T04:39:05.031Z,1003.69
2017-06-27T04:40:05.018Z,1003.71
2017-06-27T04:41:05.007Z,1003.65
2017-06-27T04:42:04.993Z,1003.66
2017-06-27T04:43:04.981Z,1003.67
2017-06-27T04:44:04.970Z,1003.67
2017-06-27T04:45:04.958Z,1003.64
2017-06-27T04:46:04.945Z,1003.67
2017-06-27T04:47:04.932Z,1003.68
2017-06-27T04:48:04.920Z,1003.69
2017-06-27T04:49:04.907Z,1003.7
2017-06-27T04:50:04.895Z,1003.67
2017-06-27T04:51:04.884Z,1003.64
2017-06-27T04:52:04.875Z,1003.62
2017-06-27T04:53:04.859Z,1003.6
2017-06-27T04:54:04.848Z,1003.6
2017-06-27T04:55:04.838Z,1003.58
2017-06-27T04:56:04.827Z,1003.57
2017-06-27T04:57:04.812Z,1003.6
2017-06-27T04:58:04.804Z,1003.61
2017-06-27T04:59:04.789Z,1003.66
2017-06-27T05:00:04.776Z,1003.66
2017-06-27T05:01:04.765Z,1003.64
2017-06-27T05:02:04.754Z,1003.59
2017-06-27T05:03:04.740Z,1003.56
2017-06-27T05:04:04.730Z,1003.56
2017-06-27T05:05:04.717Z,1003.53
2017-06-27T05:06:04.710Z,1003.55
2017-06-27T05:07:04.693Z,1003.56
2017-06-27T05:08:04.681Z,1003.57
2017-06-27T05:09:04.669Z,1003.57
2017-06-27T05:10:04.660Z,1003.55
2017-06-27T05:11:04.645Z,1003.51
2017-06-27T05:12:04.636Z,1003.47
2017-06-27T05:13:04.624Z,1003.44
2017-06-27T05:14:04.612Z,1003.43
2017-06-27T05:15:04.600Z,1003.46
2017-06-27T05:16:04.589Z,1003.46
2017-06-27T05:17:04.576Z,1003.43
2017-06-27T05:18:04.566Z,1003.43
2017-06-27T05:19:04.553Z,1003.46
2017-06-27T05:20:04.540Z,1003.48
2017-06-27T05:21:04.531Z,1003.49
2017-06-27T05:22:04.554Z,1003.44
2017-06-27T05:23:04.509Z,1003.42
2017-06-27T05:24:04.497Z,1003.38
2017-06-27T05:25:04.483Z,1003.34
2017-06-27T05:26:04.473Z,1003.32
2017-06-27T05:27:04.460Z,1003.33
2017-06-27T05:28:04.449Z,1003.34
2017-06-27T05:29:04.437Z,1003.32
2017-06-27T05:30:04.427Z,1003.38
2017-06-27T05:31:04.415Z,1003.41
2017-06-27T05:32:04.404Z,1003.39
2017-06-27T05:33:04.393Z,1003.38
2017-06-27T05:34:04.381Z,1003.37
2017-06-27T05:35:04.370Z,1003.38
2017-06-27T05:36:04.359Z,1003.35
2017-06-27T05:37:04.347Z,1003.36
2017-06-27T05:38:04.337Z,1003.31
2017-06-27T05:39:04.328Z,1003.33
2017-06-27T05:40:04.313Z,1003.31
2017-06-27T05:41:04.301Z,1003.34
2017-06-27T05:42:04.293Z,1003.35
2017-06-27T05:43:04.282Z,1003.29
2017-06-27T05:44:04.268Z,1003.32
2017-06-27T05:45:04.258Z,1003.29
2017-06-27T05:46:04.246Z,1003.34
2017-06-27T05:47:04.236Z,1003.35
2017-06-27T05:48:04.224Z,1003.37
2017-06-27T05:49:04.213Z,1003.37
2017-06-27T05:50:04.205Z,1003.41
2017-06-27T05:51:04.196Z,1003.35
2017-06-27T05:52:04.183Z,1003.37
2017-06-27T05:53:04.169Z,1003.33
2017-06-27T05:54:04.159Z,1003.32
2017-06-27T05:55:04.147Z,1003.32
2017-06-27T05:56:04.137Z,1003.31
2017-06-27T05:57:04.127Z,1003.31
2017-06-27T05:58:04.116Z,1003.32
2017-06-27T05:59:04.106Z,1003.32
2017-06-27T06:00:04.094Z,1003.32
2017-06-27T06:01:04.084Z,1003.31
2017-06-27T06:02:04.073Z,1003.3
2017-06-27T06:03:04.065Z,1003.27
2017-06-27T06:04:04.055Z,1003.28
2017-06-27T06:05:04.042Z,1003.29
2017-06-27T06:06:04.032Z,1003.26
2017-06-27T06:07:04.022Z,1003.25
2017-06-27T06:08:04.011Z,1003.28
2017-06-27T06:09:04.001Z,1003.25
2017-06-27T06:10:03.989Z,1003.26
2017-06-27T06:11:03.977Z,1003.27
2017-06-27T06:12:03.969Z,1003.27
2017-06-27T06:13:03.958Z,1003.28
2017-06-27T06:14:03.947Z,1003.24
2017-06-27T06:15:03.938Z,1003.2
2017-06-27T06:16:03.930Z,1003.18
2017-06-27T06:17:03.918Z,1003.2
2017-06-27T06:18:03.907Z,1003.21
2017-06-27T06:19:03.900Z,1003.26
2017-06-27T06:20:03.886Z,1003.28
2017-06-27T06:21:03.876Z,1003.29
2017-06-27T06:22:03.866Z,1003.32
2017-06-27T06:23:03.857Z,1003.29
2017-06-27T06:24:03.845Z,1003.29
2017-06-27T06:25:03.837Z,1003.28
2017-06-27T06:26:03.828Z,1003.26
2017-06-27T06:27:03.822Z,1003.22
2017-06-27T06:28:03.805Z,1003.23
2017-06-27T06:29:03.798Z,1003.25
2017-06-27T06:30:03.786Z,1003.28
2017-06-27T06:31:03.777Z,1003.24
2017-06-27T06:32:03.765Z,1003.27
2017-06-27T06:33:03.758Z,1003.34
2017-06-27T06:34:03.746Z,1003.3
2017-06-27T06:35:03.739Z,1003.29
2017-06-27T06:36:03.729Z,1003.28
2017-06-27T06:37:03.718Z,1003.27
2017-06-27T06:38:03.708Z,1003.24
2017-06-27T06:39:03.699Z,1003.21
2017-06-27T06:40:03.690Z,1003.21
2017-06-27T06:41:03.729Z,1003.17
2017-06-27T06:42:03.669Z,1003.22
2017-06-27T06:43:03.661Z,1003.22
2017-06-27T06:44:03.652Z,1003.2
2017-06-27T06:45:03.640Z,1003.24
2017-06-27T06:46:03.632Z,1003.22
2017-06-27T06:47:03.622Z,1003.17
2017-06-27T06:48:03.611Z,1003.18
2017-06-27T06:49:03.602Z,1003.19
2017-06-27T06:50:03.594Z,1003.18
2017-06-27T06:51:03.582Z,1003.19
2017-06-27T06:52:03.572Z,1003.24
2017-06-27T06:53:03.562Z,1003.25
2017-06-27T06:54:03.554Z,1003.25
2017-06-27T06:55:03.547Z,1003.24
2017-06-27T06:56:03.534Z,1003.22
2017-06-27T06:57:03.526Z,1003.19
2017-06-27T06:58:03.517Z,1003.18
2017-06-27T06:59:03.506Z,1003.21
2017-06-27T07:00:03.498Z,1003.21
2017-06-27T07:01:03.489Z,1003.21
2017-06-27T07:02:03.479Z,1003.25
2017-06-27T07:03:03.475Z,1003.21
2017-06-27T07:04:03.461Z,1003.2
2017-06-27T07:05:03.453Z,1003.18
2017-06-27T07:06:03.442Z,1003.14
2017-06-27T07:07:03.433Z,1003.12
2017-06-27T07:08:03.428Z,1003.1
2017-06-27T07:09:03.423Z,1003.06
2017-06-27T07:10:03.406Z,1003.07
2017-06-27T07:11:03.399Z,1003.06
2017-06-27T07:12:03.390Z,1003.1
2017-06-27T07:13:03.381Z,1003.05
2017-06-27T07:14:03.371Z,1003.13
2017-06-27T07:15:03.360Z,1003.13
2017-06-27T07:16:03.353Z,1003.13
2017-06-27T07:17:03.343Z,1003.14
2017-06-27T07:18:03.335Z,1003.12
2017-06-27T07:19:03.324Z,1003.14
2017-06-27T07:20:03.316Z,1003.16
2017-06-27T07:21:03.309Z,1003.16
2017-06-27T07:22:03.300Z,1003.15
2017-06-27T07:23:03.291Z,1003.17
2017-06-27T07:24:03.282Z,1003.17
2017-06-27T07:25:03.273Z,1003.14
2017-06-27T07:26:03.264Z,1003.17
2017-06-27T07:27:03.256Z,1003.13
2017-06-27T07:28:03.251Z,1003.14
2017-06-27T07:29:03.240Z,1003.11
2017-06-27T07:30:03.233Z,1003.15
2017-06-27T07:31:03.225Z,1003.1
2017-06-27T07:32:03.213Z,1003.13
2017-06-27T07:33:03.205Z,1003.13
2017-06-27T07:34:03.212Z,1003.12
2017-06-27T07:35:03.188Z,1003.14
2017-06-27T07:36:03.183Z,1003.11
2017-06-27T07:37:03.175Z,1003.11
2017-06-27T07:38:03.163Z,1003.15
2017-06-27T07:39:03.157Z,1003.15
2017-06-27T07:40:03.150Z,1003.13
2017-06-27T07:41:03.141Z,1003.14
2017-06-27T07:42:03.133Z,1003.19
2017-06-27T07:43:03.127Z,1003.19
2017-06-27T07:44:03.116Z,1003.21
2017-06-27T07:45:03.107Z,1003.2
2017-06-27T07:46:03.101Z,1003.12
2017-06-27T07:47:03.093Z,1003.18
2017-06-27T07:48:03.085Z,1003.17
2017-06-27T07:49:03.079Z,1003.18
2017-06-27T07:50:03.072Z,1003.12
2017-06-27T07:51:03.064Z,1003.13
2017-06-27T07:52:03.056Z,1003.16
2017-06-27T07:53:03.052Z,1003.14
2017-06-27T07:54:03.041Z,1003.12
2017-06-27T07:55:03.038Z,1003.1
2017-06-27T07:56:03.029Z,1003.09
2017-06-27T07:57:03.019Z,1003.11
2017-06-27T07:58:03.012Z,1003.11
2017-06-27T07:59:03.005Z,1003.07
2017-06-27T08:00:02.998Z,1003.07
2017-06-27T08:01:02.991Z,1003.05
2017-06-27T08:02:02.984Z,1003
2017-06-27T08:03:02.977Z,1003
2017-06-27T08:04:02.969Z,1002.95
2017-06-27T08:05:02.962Z,1002.95
2017-06-27T08:06:02.957Z,1002.94
2017-06-27T08:07:02.949Z,1002.9
2017-06-27T08:08:02.943Z,1002.93
2017-06-27T08:09:02.936Z,1002.92
2017-06-27T08:10:02.928Z,1002.94
2017-06-27T08:11:02.921Z,1002.95
2017-06-27T08:12:02.914Z,1002.93
2017-06-27T08:13:02.910Z,1003
2017-06-27T08:14:02.900Z,1003
2017-06-27T08:15:02.891Z,1002.99
2017-06-27T08:16:02.887Z,1002.96
2017-06-27T08:17:02.877Z,1002.94
2017-06-27T08:18:02.871Z,1002.93
2017-06-27T08:19:02.863Z,1002.89
2017-06-27T08:20:02.857Z,1002.87
2017-06-27T08:21:02.849Z,1002.85
2017-06-27T08:22:02.842Z,1002.86
2017-06-27T08:23:02.836Z,1002.88
2017-06-27T08:24:02.828Z,1002.9
2017-06-27T08:25:02.820Z,1002.9
2017-06-27T08:26:02.812Z,1002.91
2017-06-27T08:27:02.806Z,1002.9
2017-06-27T08:28:02.799Z,1002.88
2017-06-27T08:29:02.790Z,1002.84
2017-06-27T08:30:02.785Z,1002.82
2017-06-27T08:31:02.776Z,1002.85
2017-06-27T08:32:02.769Z,1002.84
2017-06-27T08:33:02.761Z,1002.82
2017-06-27T08:34:02.754Z,1002.83
2017-06-27T08:35:02.798Z,1002.8
2017-06-27T08:36:02.743Z,1002.82
2017-06-27T08:37:02.744Z,1002.81
2017-06-27T08:38:02.727Z,1002.83
2017-06-27T08:39:02.718Z,1002.82
2017-06-27T08:40:02.710Z,1002.79
2017-06-27T08:41:02.704Z,1002.86
2017-06-27T08:42:02.698Z,1002.8
2017-06-27T08:43:02.688Z,1002.84
2017-06-27T08:44:02.683Z,1002.8
2017-06-27T08:45:02.674Z,1002.79
2017-06-27T08:46:02.666Z,1002.79
2017-06-27T08:47:02.659Z,1002.75
2017-06-27T08:48:02.652Z,1002.69
2017-06-27T08:49:02.647Z,1002.68
2017-06-27T08:50:02.638Z,1002.65
2017-06-27T08:51:02.632Z,1002.64
2017-06-27T08:52:02.623Z,1002.64
2017-06-27T08:53:02.617Z,1002.64
2017-06-27T08:54:02.615Z,1002.66
2017-06-27T08:55:02.606Z,1002.68
2017-06-27T08:56:02.595Z,1002.68
2017-06-27T08:57:02.588Z,1002.66
2017-06-27T08:58:02.580Z,1002.71
2017-06-27T08:59:02.573Z,1002.69
2017-06-27T09:00:02.569Z,1002.68
2017-06-27T09:01:02.559Z,1002.7
2017-06-27T09:02:02.551Z,1002.7
2017-06-27T09:03:02.544Z,1002.68
2017-06-27T09:04:02.536Z,1002.7
2017-06-27T09:05:02.530Z,1002.69
2017-06-27T09:06:02.521Z,1002.68
2017-06-27T09:07:02.513Z,1002.7
2017-06-27T09:08:02.510Z,1002.7
2017-06-27T09:09:02.499Z,1002.68
2017-06-27T09:10:02.493Z,1002.67
2017-06-27T09:11:02.486Z,1002.68
2017-06-27T09:12:02.477Z,1002.68
2017-06-27T09:13:02.470Z,1002.64
2017-06-27T09:14:02.465Z,1002.66
2017-06-27T09:15:02.456Z,1002.65
2017-06-27T09:16:02.449Z,1002.63
2017-06-27T09:17:02.442Z,1002.62
2017-06-27T09:18:02.434Z,1002.61
2017-06-27T09:19:02.426Z,1002.65
2017-06-27T09:20:02.420Z,1002.61
2017-06-27T09:21:02.424Z,1002.62
2017-06-27T09:22:02.404Z,1002.61
2017-06-27T09:23:02.399Z,1002.56
2017-06-27T09:24:02.387Z,1002.59
2017-06-27T09:25:02.382Z,1002.56
2017-06-27T09:26:02.375Z,1002.54
2017-06-27T09:27:02.367Z,1002.52
2017-06-27T09:28:02.361Z,1002.5
2017-06-27T09:29:02.352Z,1002.49
2017-06-27T09:30:02.345Z,1002.51
2017-06-27T09:31:02.339Z,1002.47
2017-06-27T09:32:02.329Z,1002.53
2017-06-27T09:33:02.323Z,1002.55
2017-06-27T09:34:02.315Z,1002.55
2017-06-27T09:35:02.307Z,1002.56
2017-06-27T09:36:02.300Z,1002.56
2017-06-27T09:37:02.294Z,1002.52
2017-06-27T09:38:02.285Z,1002.52
2017-06-27T09:39:02.278Z,1002.45
2017-06-27T09:40:02.272Z,1002.43
2017-06-27T09:41:02.263Z,1002.4
2017-06-27T09:42:02.459Z,1002.35
2017-06-27T09:43:02.250Z,1002.38
2017-06-27T09:44:02.243Z,1002.39
2017-06-27T09:45:02.235Z,1002.38
2017-06-27T09:46:02.227Z,1002.36
2017-06-27T09:47:02.220Z,1002.4
2017-06-27T09:48:02.215Z,1002.44
2017-06-27T09:49:02.205Z,1002.41
2017-06-27T09:50:02.197Z,1002.4
2017-06-27T09:51:02.192Z,1002.36
2017-06-27T09:52:02.183Z,1002.33
2017-06-27T09:53:02.177Z,1002.35
2017-06-27T09:54:02.171Z,1002.29
2017-06-27T09:55:02.167Z,1002.32
2017-06-27T09:56:02.154Z,1002.29
2017-06-27T09:57:02.149Z,1002.28
2017-06-27T09:58:02.141Z,1002.24
2017-06-27T09:59:02.136Z,1002.21
2017-06-27T10:00:02.126Z,1002.21
2017-06-27T10:01:02.120Z,1002.2
2017-06-27T10:02:02.112Z,1002.17
2017-06-27T10:03:02.105Z,1002.17
2017-06-27T10:04:02.098Z,1002.15
2017-06-27T10:05:02.091Z,1002.14
2017-06-27T10:06:02.085Z,1002.12
2017-06-27T10:07:02.077Z,1002.14
2017-06-27T10:08:02.075Z,1002.16
2017-06-27T10:09:02.064Z,1002.14
2017-06-27T10:10:02.058Z,1002.19
2017-06-27T10:11:02.051Z,1002.18
2017-06-27T10:12:02.043Z,1002.2
2017-06-27T10:13:02.038Z,1002.19
2017-06-27T10:14:02.029Z,1002.18
2017-06-27T10:15:02.022Z,1002.19
2017-06-27T10:16:02.016Z,1002.15
2017-06-27T10:17:02.012Z,1002.09
2017-06-27T10:18:02.002Z,1002.08
2017-06-27T10:19:01.996Z,1002.11
2017-06-27T10:20:01.992Z,1002.12
2017-06-27T10:21:01.983Z,1002.14
2017-06-27T10:22:01.977Z,1002.17
2017-06-27T10:23:01.969Z,1002.12
2017-06-27T10:24:01.963Z,1002.14
2017-06-27T10:25:01.956Z,1002.14
2017-06-27T10:26:01.952Z,1002.15
2017-06-27T10:27:01.949Z,1002.12
2017-06-27T10:28:01.937Z,1002.1
2017-06-27T10:29:01.930Z,1002.11
2017-06-27T10:30:01.925Z,1002.09
2017-06-27T10:31:01.920Z,1002.07
2017-06-27T10:32:01.913Z,1002.06
2017-06-27T10:33:01.906Z,1002.03
2017-06-27T10:34:01.900Z,1002.03
2017-06-27T10:35:01.895Z,1002
2017-06-27T10:36:01.890Z,1002.01
2017-06-27T10:37:01.879Z,1002.01
2017-06-27T10:38:01.905Z,1002.02
2017-06-27T10:39:01.869Z,1001.98
2017-06-27T10:40:01.866Z,1002.02
2017-06-27T10:41:01.855Z,1002
2017-06-27T10:42:01.851Z,1002.02
2017-06-27T10:43:01.844Z,1002.01
2017-06-27T10:44:01.836Z,1002.02
2017-06-27T10:45:01.831Z,1002.04
2017-06-27T10:46:01.824Z,1002.02
2017-06-27T10:47:01.819Z,1002.03
2017-06-27T10:48:01.812Z,1002.01
2017-06-27T10:49:01.808Z,1002.07
2017-06-27T10:50:01.800Z,1002.01
2017-06-27T10:51:01.794Z,1002
2017-06-27T10:52:01.788Z,1001.99
2017-06-27T10:53:01.783Z,1001.98
2017-06-27T10:54:01.779Z,1001.99
2017-06-27T10:55:01.774Z,1001.92
2017-06-27T10:56:01.768Z,1001.93
2017-06-27T10:57:01.760Z,1001.89
2017-06-27T10:58:01.753Z,1001.93
2017-06-27T10:59:01.748Z,1001.91
2017-06-27T11:00:01.742Z,1001.92
2017-06-27T11:01:01.741Z,1001.9
2017-06-27T11:02:01.733Z,1001.93
2017-06-27T11:03:01.728Z,1001.86
2017-06-27T11:04:01.720Z,1001.89
2017-06-27T11:05:01.721Z,1001.85
2017-06-27T11:06:01.710Z,1001.83
2017-06-27T11:07:01.707Z,1001.81
2017-06-27T11:08:01.700Z,1001.8
2017-06-27T11:09:01.693Z,1001.78
2017-06-27T11:10:01.695Z,1001.77
2017-06-27T11:11:01.685Z,1001.78
2017-06-27T11:12:01.682Z,1001.76
2017-06-27T11:13:01.676Z,1001.72
2017-06-27T11:14:01.668Z,1001.75
2017-06-27T11:15:01.663Z,1001.72
2017-06-27T11:16:01.658Z,1001.73
2017-06-27T11:17:01.653Z,1001.74
2017-06-27T11:18:01.649Z,1001.73
2017-06-27T11:19:01.645Z,1001.73
2017-06-27T11:20:01.638Z,1001.73
2017-06-27T11:21:01.632Z,1001.72
2017-06-27T11:22:01.628Z,1001.74
2017-06-27T11:23:01.622Z,1001.66
2017-06-27T11:24:01.616Z,1001.68
2017-06-27T11:25:01.611Z,1001.68
2017-06-27T11:26:01.607Z,1001.69
2017-06-27T11:27:01.600Z,1001.68
2017-06-27T11:28:01.596Z,1001.67
2017-06-27T11:29:01.589Z,1001.68
2017-06-27T11:30:01.587Z,1001.67
2017-06-27T11:31:01.579Z,1001.68
2017-06-27T11:32:01.574Z,1001.66
2017-06-27T11:33:01.570Z,1001.67
2017-06-27T11:34:01.563Z,1001.61
2017-06-27T11:35:01.560Z,1001.59
2017-06-27T11:36:01.552Z,1001.62
2017-06-27T11:37:01.552Z,1001.58
2017-06-27T11:38:01.541Z,1001.57
2017-06-27T11:39:01.537Z,1001.56
2017-06-27T11:40:01.532Z,1001.55
2017-06-27T11:41:01.526Z,1001.58
2017-06-27T11:42:01.726Z,1001.54
2017-06-27T11:43:01.515Z,1001.56
2017-06-27T11:44:01.518Z,1001.51
2017-06-27T11:45:01.506Z,1001.51
2017-06-27T11:46:01.500Z,1001.48
2017-06-27T11:47:01.496Z,1001.52
2017-06-27T11:48:01.491Z,1001.49
2017-06-27T11:49:01.487Z,1001.52
2017-06-27T11:50:01.480Z,1001.48
2017-06-27T11:51:01.475Z,1001.46
2017-06-27T11:52:01.473Z,1001.43
2017-06-27T11:53:01.464Z,1001.46
2017-06-27T11:54:01.459Z,1001.43
2017-06-27T11:55:01.456Z,1001.45
2017-06-27T11:56:01.450Z,1001.43
2017-06-27T11:57:01.444Z,1001.39
2017-06-27T11:58:01.452Z,1001.43
2017-06-27T11:59:01.435Z,1001.46
2017-06-27T12:00:01.429Z,1001.42
2017-06-27T12:01:01.424Z,1001.42
2017-06-27T12:02:01.418Z,1001.39
2017-06-27T12:03:01.414Z,1001.36
2017-06-27T12:04:01.406Z,1001.35
2017-06-27T12:05:01.401Z,1001.35
2017-06-27T12:06:01.397Z,1001.33
2017-06-27T12:07:01.393Z,1001.32
2017-06-27T12:08:01.387Z,1001.34
2017-06-27T12:09:01.380Z,1001.31